Aérodrome :
LOGIN :

S'inscrire | Disclaimer

   EN    FR    IT 

 










Légende :    VFR   VFR Marginal   IFR   IFR Intensif   IFR Très Intensif
Visi : 
Plafond : 
>= 8 km
>= 3000ft
5 à 8 km
1000 à 3000 ft
1500m à 5 km
500 à 1000 ft
800 à 1500m
200 à 500 ft
< 800m
< 200 ft
Symboles :   Orages  Brouillard  Fortes neiges  Fortes précipitations  Vent > 20 kt
SIGMETs :   Divers  Orages  Givrage  Turbulence  Onde Orograph.  Cendres Volcan.







- Altitude de l'aérodrome : 1345 ft
- Code IATA : FRZ


ETHF - Fritzlar

DERNIER METAR :
  • 172020Z 36001KT 2500 BR BKN004 04/03 Q1026 YLO

METARs EXPIRÉS :
  • 171920Z VRB01KT 1500 MIFG BR SCT005 SCT025 03/02 Q1025 AMB
  • 171842Z 19002KT 2000 BR FEW005 SCT045 02/02 Q1025 YLO
  • 171852Z VRB02KT 1500 BR FEW005 SCT045 02/02 Q1025 AMB
  • 171832Z VRB01KT 4000 BR FEW005 BKN045 02/02 Q1026 GRN
  • 171820Z 13001KT 4000 BR SCT050 03/02 Q1026 GRN

Prévision TAF périmée.
Pas de NOTAMs connus pour ce terrain.



MET'MAP, la Météo Aéronautique d'un coup d'oeil ! - Copyright ORBIFLY Décembre 2007 - Disclaimer

ORBIFLY MET'MAP TEAM :

Programmation & Développement : Alexandra Zaïnal
Conception & Développement : Baudouin d'Aumeries
Co-Programmation & Développement : Marc-Olivier Méhu
Soutien technique & logistique : Manuel Goepfert

Contact : metmap@orbifly.com




SOURCES & CREDITS :

   NOAA